Odense, Denmark
Current Conditions -  °F | °C
As of 5:20 AM on Monday 22 Dec 2014 (Local Time) from EKSP Reporting Station
Light Rain Light Rain  
Wind Chill: 50°   Ceiling: 600
Heat Index: 50°   Visibility: 0mi
Dew Point: 48°   Wind: 26mph
Humidity: 94%   Direction: 260°W
Pressure: 29.59"   Gusts: 38mph
Location:  55.4°N, 10.39°E
Report Text: EKSP 220420Z 26023G33KT 0000 R10/P2000N R28/P2000N -RABKN006 BKN010 10/09 Q1002
Loading
Personal Weather Stations






























Interactive Weather Map New forecast layout! Learn more

10-Day Weather Forecast

Advertisements
Track Severe Weather on mobile